Time;durP1;ratioP1;P1;durP2;ratioP2;P2;SDS_P1;SDS_P2;PMS_P1;PMS_P2;Temp;Humidity;BMP_temperature;BMP_pressure;BME280_temperature;BME280_humidity;BME280_pressure;Samples;Min_cycle;Max_cycle;Signal;HPM_P1;HPM_P2
2021/03/26 00:00:59;;;;;;;5.43;3.07;;;8.00;53.80;;;;;;4956197;28;20035;-84
2021/03/26 00:03:27;;;;;;;5.70;3.10;;;8.00;53.90;;;;;;4980919;28;20031;-84
2021/03/26 00:06:02;;;;;;;9.27;2.80;;;8.00;53.70;;;;;;4968498;28;20035;-84
2021/03/26 00:08:28;;;;;;;4.77;2.30;;;7.90;53.80;;;;;;4972580;28;20060;-82
2021/03/26 00:10:55;;;;;;;4.23;2.40;;;7.90;53.90;;;;;;4960649;28;20560;-82
2021/03/26 00:13:21;;;;;;;4.60;2.30;;;7.80;53.80;;;;;;4975945;28;20465;-82
2021/03/26 00:15:46;;;;;;;6.07;2.53;;;7.70;54.10;;;;;;4974184;28;20027;-83
2021/03/26 00:18:12;;;;;;;7.23;2.20;;;7.70;54.40;;;;;;4961790;28;20035;-83
2021/03/26 00:20:38;;;;;;;3.70;1.70;;;7.70;54.40;;;;;;4963333;28;20033;-83
2021/03/26 00:23:06;;;;;;;4.63;1.83;;;7.60;54.30;;;;;;4974627;28;20035;-83
2021/03/26 00:25:31;;;;;;;2.53;1.30;;;7.60;54.40;;;;;;4971356;28;20035;-83
2021/03/26 00:27:57;;;;;;;3.83;1.60;;;7.60;54.60;;;;;;4971428;28;20042;-83
2021/03/26 00:30:24;;;;;;;5.90;2.20;;;7.60;54.50;;;;;;4971254;28;20082;-83
2021/03/26 00:32:50;;;;;;;5.90;1.90;;;7.60;54.60;;;;;;4974704;28;20033;-83
2021/03/26 00:35:18;;;;;;;5.47;1.77;;;7.60;54.70;;;;;;4974397;28;20414;-83
2021/03/26 00:37:43;;;;;;;6.53;2.17;;;7.50;54.70;;;;;;4966907;28;20058;-83
2021/03/26 00:40:12;;;;;;;3.07;1.90;;;7.50;54.60;;;;;;4959619;28;20062;-83
2021/03/26 00:42:38;;;;;;;6.70;2.03;;;7.50;54.80;;;;;;4974008;28;20039;-84
2021/03/26 00:45:07;;;;;;;2.93;1.67;;;7.30;55.10;;;;;;4959426;28;20452;-83
2021/03/26 00:47:32;;;;;;;3.17;1.70;;;7.30;55.40;;;;;;4955222;28;20031;-83
2021/03/26 00:49:58;;;;;;;4.33;1.93;;;7.30;55.30;;;;;;4956323;28;20391;-83
2021/03/26 00:52:24;;;;;;;4.43;2.00;;;7.30;55.20;;;;;;4972100;28;20122;-83
2021/03/26 00:54:50;;;;;;;5.70;1.97;;;7.20;55.20;;;;;;4972225;28;20038;-83
2021/03/26 00:57:16;;;;;;;3.93;1.73;;;7.10;55.40;;;;;;4956270;28;20031;-83
2021/03/26 00:59:41;;;;;;;6.80;1.90;;;7.10;55.60;;;;;;4970458;28;20104;-83
2021/03/26 01:02:07;;;;;;;5.23;1.57;;;7.10;55.70;;;;;;4971046;28;20031;-83
2021/03/26 01:04:33;;;;;;;5.10;2.03;;;7.10;55.40;;;;;;4971727;28;20034;-83
2021/03/26 01:06:59;;;;;;;3.47;2.30;;;7.10;55.40;;;;;;4974926;28;20499;-83
2021/03/26 01:09:25;;;;;;;3.80;2.00;;;7.10;55.50;;;;;;4969172;28;20398;-83
2021/03/26 01:11:50;;;;;;;3.53;2.07;;;7.10;55.50;;;;;;4974440;28;20527;-83
2021/03/26 01:14:20;;;;;;;4.37;1.83;;;7.10;55.50;;;;;;4960395;28;20033;-83
2021/03/26 01:16:47;;;;;;;3.77;2.00;;;6.80;55.80;;;;;;4967545;28;20041;-83
2021/03/26 01:19:13;;;;;;;3.93;1.93;;;6.80;56.20;;;;;;4958369;28;20042;-83
2021/03/26 01:21:40;;;;;;;5.33;2.87;;;6.80;56.50;;;;;;4972592;28;20030;-83
2021/03/26 01:24:11;;;;;;;5.90;3.17;;;6.70;56.50;;;;;;4969813;28;20039;-83
2021/03/26 01:26:37;;;;;;;7.17;2.13;;;6.80;56.70;;;;;;4970467;28;20030;-83
2021/03/26 01:29:05;;;;;;;7.20;2.97;;;6.80;56.80;;;;;;4969513;28;20094;-83
2021/03/26 01:31:31;;;;;;;4.30;2.40;;;6.70;56.80;;;;;;4964235;28;20046;-83
2021/03/26 01:33:58;;;;;;;3.77;1.80;;;6.70;56.80;;;;;;4974259;28;20574;-83
2021/03/26 01:36:24;;;;;;;5.20;2.30;;;6.70;56.80;;;;;;4974113;28;20041;-83
2021/03/26 01:38:50;;;;;;;3.80;2.10;;;6.60;56.70;;;;;;4974726;28;20035;-83
2021/03/26 01:41:39;;;;;;;4.73;2.30;;;6.50;57.10;;;;;;4974404;28;20093;-83
2021/03/26 01:44:07;;;;;;;6.10;2.40;;;6.50;57.20;;;;;;4971444;28;20055;-83
2021/03/26 01:46:33;;;;;;;6.40;3.57;;;6.60;56.90;;;;;;4970529;28;20042;-83
2021/03/26 01:49:02;;;;;;;4.00;2.50;;;6.70;56.80;;;;;;4966813;28;20122;-83
2021/03/26 01:51:32;;;;;;;4.10;2.53;;;6.60;56.80;;;;;;4974762;28;20022;-83
2021/03/26 01:53:59;;;;;;;4.60;2.77;;;6.50;57.00;;;;;;4972688;28;20391;-83
2021/03/26 01:56:26;;;;;;;11.10;2.27;;;6.60;57.10;;;;;;4988991;28;20035;-84
2021/03/26 01:58:52;;;;;;;8.23;2.03;;;6.60;57.20;;;;;;4972329;28;20110;-83
2021/03/26 02:01:22;;;;;;;4.57;2.43;;;6.60;57.20;;;;;;4972479;28;20122;-83
2021/03/26 02:03:59;;;;;;;4.17;2.10;;;6.60;56.90;;;;;;4965866;28;20129;-83
2021/03/26 02:06:32;;;;;;;3.60;2.23;;;6.50;57.00;;;;;;4958109;28;20054;-83
2021/03/26 02:09:04;;;;;;;3.30;1.90;;;6.60;57.00;;;;;;4956843;28;20030;-84
2021/03/26 02:11:42;;;;;;;3.85;2.40;;;6.60;56.80;;;;;;4973036;28;20026;-83
2021/03/26 02:14:15;;;;;;;7.03;2.20;;;6.50;56.80;;;;;;4972284;28;20117;-83
2021/03/26 02:16:42;;;;;;;2.92;1.73;;;6.50;56.70;;;;;;4956477;28;20109;-83
2021/03/26 02:19:16;;;;;;;3.80;1.70;;;6.50;56.70;;;;;;4977765;28;20027;-82
2021/03/26 02:21:43;;;;;;;2.83;1.73;;;6.50;56.80;;;;;;4971890;28;20038;-83
2021/03/26 02:24:10;;;;;;;4.13;2.10;;;6.60;56.80;;;;;;4972198;28;20088;-83
2021/03/26 02:26:41;;;;;;;5.03;2.50;;;6.50;56.60;;;;;;4953422;28;20031;-83
2021/03/26 02:29:25;;;;;;;4.63;2.20;;;6.40;56.70;;;;;;4955672;28;20034;-83
2021/03/26 02:32:04;;;;;;;5.03;2.27;;;6.40;56.90;;;;;;4954593;28;20022;-83
2021/03/26 02:34:30;;;;;;;3.73;2.40;;;6.40;56.90;;;;;;4955907;28;20027;-83
2021/03/26 02:37:08;;;;;;;5.33;1.70;;;6.30;56.80;;;;;;4961214;28;20110;-83
2021/03/26 02:39:45;;;;;;;3.97;2.30;;;6.30;57.00;;;;;;4969261;28;20077;-83
2021/03/26 02:42:22;;;;;;;5.20;1.80;;;6.20;57.20;;;;;;4966445;28;20392;-83
2021/03/26 02:45:00;;;;;;;3.37;1.80;;;6.10;57.30;;;;;;4969881;28;20497;-83
2021/03/26 02:47:50;;;;;;;3.17;1.50;;;6.20;57.50;;;;;;4965545;28;20023;-83
2021/03/26 02:50:47;;;;;;;2.70;1.70;;;6.20;57.30;;;;;;4960584;28;20471;-83
2021/03/26 02:53:26;;;;;;;4.97;2.40;;;6.20;57.30;;;;;;4971153;28;20081;-83
2021/03/26 02:56:06;;;;;;;6.83;2.03;;;6.20;57.30;;;;;;4968538;28;20114;-83
2021/03/26 02:58:39;;;;;;;5.90;2.13;;;6.20;57.20;;;;;;4978581;28;20026;-83
2021/03/26 03:01:34;;;;;;;2.90;1.58;;;6.30;57.00;;;;;;4972946;28;20019;-83
2021/03/26 03:04:18;;;;;;;3.03;1.50;;;6.20;57.10;;;;;;4965936;28;20044;-84
2021/03/26 03:06:52;;;;;;;5.70;1.67;;;6.20;57.30;;;;;;4972625;28;20097;-83
2021/03/26 03:09:19;;;;;;;3.63;1.50;;;6.20;57.20;;;;;;4972482;28;20081;-83
2021/03/26 03:12:04;;;;;;;3.63;2.00;;;6.10;57.30;;;;;;4962580;28;20482;-83
2021/03/26 03:14:42;;;;;;;4.50;1.60;;;6.10;57.40;;;;;;4958758;28;20023;-83
2021/03/26 03:17:34;;;;;;;4.93;2.27;;;6.00;57.50;;;;;;4962243;28;20032;-83
2021/03/26 03:20:31;;;;;;;2.93;1.53;;;6.10;57.60;;;;;;4964862;28;20035;-83
2021/03/26 03:23:23;;;;;;;4.27;2.53;;;6.00;57.40;;;;;;4965474;28;20034;-82
2021/03/26 03:25:54;;;;;;;6.15;2.80;;;6.00;57.30;;;;;;4978882;28;20198;-83
2021/03/26 03:28:20;;;;;;;3.40;2.10;;;5.90;57.20;;;;;;4965318;28;20128;-83
2021/03/26 03:31:01;;;;;;;4.13;2.17;;;5.90;57.30;;;;;;4966001;28;20031;-83
2021/03/26 03:33:46;;;;;;;4.73;1.70;;;5.80;57.70;;;;;;4958750;28;20450;-82
2021/03/26 03:36:17;;;;;;;7.00;2.27;;;5.70;57.90;;;;;;4959033;28;20066;-82
2021/03/26 03:38:58;;;;;;;4.93;2.50;;;5.70;57.90;;;;;;4966391;28;20035;-83
2021/03/26 03:41:46;;;;;;;5.07;2.30;;;5.60;58.10;;;;;;4964313;28;20049;-83
2021/03/26 03:44:42;;;;;;;3.93;2.40;;;5.50;58.40;;;;;;4965482;28;20079;-83
2021/03/26 03:47:40;;;;;;;4.33;2.30;;;5.50;58.60;;;;;;4964196;28;20055;-83
2021/03/26 03:50:22;;;;;;;5.27;2.30;;;5.40;58.50;;;;;;4941713;28;20114;-83
2021/03/26 03:52:54;;;;;;;5.63;1.93;;;5.40;58.60;;;;;;4965064;28;20606;-84
2021/03/26 03:55:27;;;;;;;3.83;2.17;;;5.40;58.50;;;;;;4979754;28;20064;-83
2021/03/26 03:58:02;;;;;;;6.80;2.33;;;5.50;58.70;;;;;;4970588;28;20031;-83
2021/03/26 04:00:33;;;;;;;8.07;2.20;;;5.50;58.60;;;;;;4968306;28;20031;-84
2021/03/26 04:03:06;;;;;;;6.00;2.57;;;5.50;58.60;;;;;;4959260;28;20032;-83
2021/03/26 04:05:45;;;;;;;4.93;2.27;;;5.50;58.50;;;;;;4963597;28;20038;-83
2021/03/26 04:08:21;;;;;;;6.13;2.60;;;5.50;58.80;;;;;;4979188;28;20078;-83
2021/03/26 04:10:54;;;;;;;5.50;2.70;;;5.50;58.80;;;;;;4970331;28;20034;-83
2021/03/26 04:13:38;;;;;;;5.83;2.53;;;5.50;59.00;;;;;;4963201;28;20035;-83
2021/03/26 04:16:04;;;;;;;6.70;2.10;;;5.50;59.00;;;;;;4968073;28;20027;-83
2021/03/26 04:18:37;;;;;;;4.47;1.97;;;5.60;58.80;;;;;;4989578;28;20038;-83
2021/03/26 04:21:14;;;;;;;4.50;2.00;;;5.60;58.70;;;;;;4960245;28;20035;-83
2021/03/26 04:23:51;;;;;;;6.87;2.47;;;5.60;58.80;;;;;;4960094;28;20045;-82
2021/03/26 04:26:47;;;;;;;6.90;3.27;;;5.60;58.60;;;;;;4967376;28;20431;-83
2021/03/26 04:29:37;;;;;;;6.07;2.50;;;5.60;58.60;;;;;;4964258;28;20360;-83
2021/03/26 04:32:07;;;;;;;7.30;3.90;;;5.60;58.60;;;;;;4966971;28;20577;-83
2021/03/26 04:34:33;;;;;;;8.60;2.77;;;5.60;58.60;;;;;;4982181;28;20435;-83
2021/03/26 04:37:29;;;;;;;6.77;2.60;;;5.50;58.60;;;;;;4966557;28;20039;-83
2021/03/26 04:40:06;;;;;;;5.37;2.67;;;5.50;58.80;;;;;;4981273;28;20039;-82
2021/03/26 04:42:47;;;;;;;4.20;2.60;;;5.40;58.80;;;;;;4968610;28;20033;-82
2021/03/26 04:45:34;;;;;;;7.10;2.87;;;5.40;59.00;;;;;;4958226;28;20031;-82
2021/03/26 04:48:23;;;;;;;5.80;2.67;;;5.30;59.30;;;;;;4974898;28;20482;-82
2021/03/26 04:51:22;;;;;;;5.50;2.40;;;5.30;59.40;;;;;;4974262;28;20018;-84
2021/03/26 04:54:12;;;;;;;10.40;2.63;;;5.30;59.40;;;;;;4966777;28;20030;-83
2021/03/26 04:56:51;;;;;;;5.30;2.33;;;5.30;59.30;;;;;;4955106;28;20082;-82
2021/03/26 04:59:25;;;;;;;6.77;3.03;;;5.30;59.10;;;;;;4964930;28;20031;-83
2021/03/26 05:01:55;;;;;;;4.20;2.50;;;5.30;59.10;;;;;;4968594;28;20077;-82
2021/03/26 05:04:25;;;;;;;15.97;3.70;;;5.30;59.10;;;;;;4958152;28;20038;-83
2021/03/26 05:07:05;;;;;;;12.13;5.43;;;5.20;59.30;;;;;;4965661;28;20553;-82
2021/03/26 05:09:38;;;;;;;11.40;6.10;;;5.20;59.50;;;;;;4970116;28;20029;-83
2021/03/26 05:12:17;;;;;;;16.63;6.37;;;5.20;59.50;;;;;;4969613;28;20031;-82
2021/03/26 05:14:53;;;;;;;13.23;6.77;;;5.20;59.40;;;;;;4963886;28;20384;-83
2021/03/26 05:17:47;;;;;;;12.27;5.97;;;5.20;59.50;;;;;;4967085;28;20129;-84
2021/03/26 05:20:15;;;;;;;11.23;5.03;;;5.30;59.60;;;;;;4962298;28;20491;-83
2021/03/26 05:22:54;;;;;;;8.43;4.13;;;5.30;59.30;;;;;;4959849;28;20023;-84
2021/03/26 05:25:49;;;;;;;10.27;4.63;;;5.30;59.30;;;;;;4967332;28;20537;-84
2021/03/26 05:28:24;;;;;;;7.97;4.20;;;5.30;59.40;;;;;;4969061;28;20070;-84
2021/03/26 05:30:50;;;;;;;14.57;5.83;;;5.30;59.30;;;;;;4969590;28;20024;-84
2021/03/26 05:33:23;;;;;;;14.83;6.53;;;5.30;59.40;;;;;;4968913;28;20035;-84
2021/03/26 05:36:05;;;;;;;;;;;5.30;59.40;;;;;;4973985;28;20089;-84
2021/03/26 05:38:42;;;;;;;7.10;4.43;;;5.30;59.20;;;;;;4963252;28;19906;-84
2021/03/26 05:41:35;;;;;;;12.03;5.10;;;5.30;59.30;;;;;;4968236;28;20117;-83
2021/03/26 05:44:32;;;;;;;7.75;4.40;;;5.20;59.40;;;;;;4969818;28;20031;-83
2021/03/26 05:47:12;;;;;;;6.90;4.13;;;5.20;59.40;;;;;;4964828;28;20074;-82
2021/03/26 05:50:18;;;;;;;14.07;4.70;;;5.30;59.40;;;;;;4974023;28;20014;-82
2021/03/26 05:53:32;;;;;;;10.07;4.33;;;5.30;59.50;;;;;;4956341;28;20095;-83
2021/03/26 05:56:22;;;;;;;;;;;5.20;59.40;;;;;;4949924;28;20040;-83
2021/03/26 05:59:21;;;;;;;10.47;5.30;;;5.20;59.70;;;;;;4970487;28;20005;-83
2021/03/26 06:02:08;;;;;;;9.27;5.37;;;5.30;59.80;;;;;;4965140;28;20166;-83
2021/03/26 06:05:11;;;;;;;15.67;6.67;;;5.40;59.70;;;;;;4986719;28;20030;-83
2021/03/26 06:07:52;;;;;;;8.43;4.35;;;5.40;59.70;;;;;;4971068;28;20116;-82
2021/03/26 06:10:36;;;;;;;7.13;4.20;;;5.40;59.50;;;;;;4965544;28;20169;-83
2021/03/26 06:13:39;;;;;;;8.57;4.27;;;5.40;59.80;;;;;;4974119;28;20026;-82
2021/03/26 06:16:24;;;;;;;;;;;5.50;60.00;;;;;;4969333;28;20387;-82
2021/03/26 06:19:13;;;;;;;6.83;4.43;;;5.50;59.70;;;;;;4969771;28;19969;-83
2021/03/26 06:22:14;;;;;;;9.93;4.87;;;5.60;59.70;;;;;;4969704;28;20029;-83
2021/03/26 06:25:00;;;;;;;8.17;4.20;;;5.60;59.50;;;;;;4966581;28;20549;-82
2021/03/26 06:27:47;;;;;;;7.87;3.80;;;5.60;59.50;;;;;;4971058;28;20110;-83
2021/03/26 06:30:13;;;;;;;12.43;4.00;;;5.70;59.50;;;;;;4972633;28;20552;-83
2021/03/26 06:32:54;;;;;;;16.53;4.87;;;5.70;59.30;;;;;;4972093;28;20015;-82
2021/03/26 06:35:50;;;;;;;12.73;4.33;;;5.70;59.30;;;;;;4962811;28;20058;-83
2021/03/26 06:38:31;;;;;;;8.13;5.17;;;5.70;59.40;;;;;;4965122;28;20368;-83
2021/03/26 06:41:03;;;;;;;12.47;5.60;;;5.70;59.40;;;;;;4953495;28;20039;-83
2021/03/26 06:43:56;;;;;;;10.33;5.83;;;5.80;59.40;;;;;;4957405;28;20031;-83
2021/03/26 06:47:01;;;;;;;13.03;7.03;;;5.80;59.50;;;;;;4987347;28;20344;-83
2021/03/26 06:49:45;;;;;;;15.60;6.20;;;5.90;59.40;;;;;;4970806;28;20034;-83
2021/03/26 06:52:26;;;;;;;10.50;6.00;;;5.90;59.50;;;;;;4970289;28;20486;-83
2021/03/26 06:55:00;;;;;;;11.27;5.60;;;6.00;59.50;;;;;;4973050;28;20080;-83
2021/03/26 06:57:55;;;;;;;10.07;4.23;;;6.20;59.50;;;;;;4972340;28;20042;-83
2021/03/26 07:00:39;;;;;;;8.07;4.90;;;6.20;59.20;;;;;;4984934;28;20019;-83
2021/03/26 07:03:42;;;;;;;7.23;4.53;;;6.30;59.20;;;;;;4953967;28;20557;-84
2021/03/26 07:06:35;;;;;;;13.90;5.85;;;6.30;59.20;;;;;;4962132;28;20114;-84
2021/03/26 07:09:10;;;;;;;11.20;5.53;;;6.40;59.10;;;;;;4973719;28;20039;-85
2021/03/26 07:11:58;;;;;;;11.30;5.20;;;6.50;59.30;;;;;;4972321;28;20034;-83
2021/03/26 07:14:55;;;;;;;8.87;4.30;;;6.60;59.20;;;;;;4972590;28;20097;-83
2021/03/26 07:17:29;;;;;;;12.00;5.60;;;6.70;59.10;;;;;;4968907;28;20027;-83
2021/03/26 07:19:58;;;;;;;13.37;6.03;;;6.80;58.80;;;;;;4968835;28;20475;-83
2021/03/26 07:22:45;;;;;;;14.93;6.73;;;6.90;58.70;;;;;;4963468;28;20051;-83
2021/03/26 07:25:28;;;;;;;12.37;5.73;;;6.90;58.50;;;;;;4979559;28;20049;-83
2021/03/26 07:28:35;;;;;;;8.73;5.40;;;7.00;58.30;;;;;;4965568;28;20117;-83
2021/03/26 07:31:25;;;;;;;6.93;4.30;;;7.00;58.20;;;;;;4969315;28;20027;-83
2021/03/26 07:34:05;;;;;;;8.53;4.67;;;7.10;58.00;;;;;;4967236;28;20027;-83
2021/03/26 07:36:36;;;;;;;15.20;5.07;;;7.10;57.80;;;;;;4978311;28;20027;-83
2021/03/26 07:39:39;;;;;;;9.80;4.30;;;7.20;57.70;;;;;;4959472;28;20023;-83
2021/03/26 07:42:19;;;;;;;7.95;4.53;;;7.20;57.70;;;;;;4966205;28;20037;-83
2021/03/26 07:45:03;;;;;;;10.97;4.50;;;7.30;57.60;;;;;;4972780;28;20034;-83
2021/03/26 07:48:06;;;;;;;10.30;5.13;;;7.40;57.50;;;;;;4988024;28;20086;-83
2021/03/26 07:50:35;;;;;;;8.95;4.72;;;7.50;57.30;;;;;;4975572;28;20022;-83
2021/03/26 07:53:37;;;;;;;5.87;3.67;;;7.60;57.00;;;;;;4972756;28;20031;-83
2021/03/26 07:56:32;;;;;;;9.93;4.85;;;7.70;56.80;;;;;;4965906;28;20023;-83
2021/03/26 07:59:28;;;;;;;16.43;5.47;;;7.90;56.50;;;;;;4971872;28;20022;-83
2021/03/26 08:02:11;;;;;;;12.87;4.53;;;8.10;56.30;;;;;;4969514;28;20348;-83
2021/03/26 08:04:58;;;;;;;11.93;4.53;;;8.20;56.20;;;;;;4972819;28;20819;-83
2021/03/26 08:07:46;;;;;;;6.57;3.60;;;8.40;55.90;;;;;;4969729;28;20496;-83
2021/03/26 08:10:35;;;;;;;17.10;6.60;;;8.70;55.70;;;;;;4970783;28;20069;-83
2021/03/26 08:13:26;;;;;;;12.00;4.40;;;8.90;55.30;;;;;;4975335;28;20499;-83
2021/03/26 08:16:29;;;;;;;9.10;4.40;;;9.00;55.10;;;;;;4980216;28;20050;-83
2021/03/26 08:19:04;;;;;;;6.05;3.50;;;9.20;54.60;;;;;;4972665;28;20521;-84
2021/03/26 08:21:40;;;;;;;6.50;3.30;;;9.30;54.60;;;;;;4973421;28;20031;-84
2021/03/26 08:24:40;;;;;;;10.50;4.30;;;9.50;54.30;;;;;;4970418;28;20030;-84
2021/03/26 08:27:27;;;;;;;6.30;3.93;;;9.70;53.80;;;;;;4984244;28;20062;-84
2021/03/26 08:30:06;;;;;;;8.63;2.67;;;9.70;53.20;;;;;;4972230;28;20027;-84
2021/03/26 08:33:00;;;;;;;6.80;3.10;;;9.90;53.40;;;;;;4972814;28;20035;-84
2021/03/26 08:36:11;;;;;;;7.30;3.50;;;10.10;53.00;;;;;;4977610;28;20019;-85
2021/03/26 08:38:52;;;;;;;4.63;2.53;;;10.40;52.20;;;;;;4969285;28;20031;-84
2021/03/26 08:41:32;;;;;;;4.37;2.40;;;10.50;51.70;;;;;;4966197;28;20090;-85
2021/03/26 08:43:58;;;;;;;2.90;1.97;;;10.60;51.20;;;;;;4970249;28;20027;-85
2021/03/26 08:46:29;;;;;;;2.80;1.93;;;10.80;50.90;;;;;;4967003;28;20055;-84
2021/03/26 08:49:23;;;;;;;6.03;2.40;;;10.90;50.00;;;;;;4978977;28;20524;-84
2021/03/26 08:51:55;;;;;;;7.10;1.90;;;11.20;49.50;;;;;;4985077;28;20147;-85
2021/03/26 08:54:45;;;;;;;4.23;2.37;;;11.30;49.30;;;;;;4971684;28;20431;-85
2021/03/26 08:57:18;;;;;;;3.97;2.13;;;11.50;48.60;;;;;;4974526;28;20031;-85
2021/03/26 09:00:19;;;;;;;6.45;2.38;;;11.70;48.50;;;;;;4971279;28;20042;-85
2021/03/26 09:02:51;;;;;;;3.63;1.80;;;11.80;47.90;;;;;;4972984;28;20034;-85
2021/03/26 09:05:40;;;;;;;9.53;2.10;;;12.00;47.60;;;;;;4962876;28;20043;-85
2021/03/26 09:08:12;;;;;;;7.33;2.80;;;12.30;47.10;;;;;;4967596;28;20043;-85
2021/03/26 09:11:21;;;;;;;7.47;2.37;;;12.50;46.30;;;;;;4969740;28;20024;-85
2021/03/26 09:14:14;;;;;;;4.00;2.00;;;12.60;45.80;;;;;;4963102;28;20134;-85
2021/03/26 09:16:51;;;;;;;5.10;2.63;;;12.70;45.30;;;;;;4966034;28;20031;-85
2021/03/26 09:19:42;;;;;;;5.00;2.17;;;12.80;45.00;;;;;;4984965;28;20027;-85
2021/03/26 09:22:29;;;;;;;9.83;1.90;;;12.90;44.70;;;;;;4975760;28;20387;-85
2021/03/26 09:25:07;;;;;;;6.27;2.33;;;13.00;44.60;;;;;;4955349;28;20059;-85
2021/03/26 09:27:49;;;;;;;3.50;2.00;;;13.20;44.20;;;;;;4957028;28;20475;-85
2021/03/26 09:30:27;;;;;;;5.13;2.20;;;13.40;44.00;;;;;;4983233;28;20041;-85
2021/03/26 09:32:55;;;;;;;4.93;1.93;;;13.50;43.70;;;;;;4979292;28;20023;-85
2021/03/26 09:35:30;;;;;;;14.13;2.37;;;13.70;43.90;;;;;;4971187;28;20046;-85
2021/03/26 09:38:04;;;;;;;7.67;2.53;;;13.90;43.70;;;;;;4968952;28;20030;-85
2021/03/26 09:40:48;;;;;;;5.47;1.90;;;14.00;42.70;;;;;;4970228;28;20062;-85
2021/03/26 09:43:23;;;;;;;2.83;1.83;;;14.00;41.90;;;;;;4971145;28;20074;-85
2021/03/26 09:46:20;;;;;;;3.63;1.43;;;14.10;41.40;;;;;;4958184;28;20027;-85
2021/03/26 09:49:15;;;;;;;5.60;1.90;;;14.00;40.70;;;;;;4954368;28;20058;-85
2021/03/26 09:52:13;;;;;;;3.33;1.57;;;14.10;40.80;;;;;;4962823;28;20026;-86
2021/03/26 09:54:43;;;;;;;6.27;1.40;;;14.20;40.60;;;;;;4960541;28;20024;-85
2021/03/26 09:57:27;;;;;;;3.80;1.57;;;14.40;40.60;;;;;;4955917;28;20034;-86
2021/03/26 10:00:11;;;;;;;2.93;1.77;;;14.50;39.60;;;;;;4955593;28;20073;-85
2021/03/26 10:03:02;;;;;;;6.47;2.27;;;14.60;39.80;;;;;;4969757;28;20502;-85
2021/03/26 10:05:41;;;;;;;5.97;2.07;;;14.70;39.60;;;;;;4971536;28;20035;-85
2021/03/26 10:09:08;;;;;;;4.47;1.90;;;14.90;39.40;;;;;;4973928;28;20081;-85
2021/03/26 10:11:45;;;;;;;11.37;1.87;;;15.00;38.80;;;;;;4940699;28;20031;-85
2021/03/26 10:14:29;;;;;;;3.83;1.60;;;15.10;39.00;;;;;;4972982;28;20027;-85
2021/03/26 10:17:03;;;;;;;3.50;1.80;;;15.30;38.60;;;;;;4955278;28;20110;-85
2021/03/26 10:19:38;;;;;;;3.10;2.00;;;15.40;38.40;;;;;;4972741;28;20041;-85
2021/03/26 10:22:23;;;;;;;2.70;1.70;;;15.40;37.90;;;;;;4967316;28;20441;-85
2021/03/26 10:25:12;;;;;;;4.77;1.57;;;15.40;37.50;;;;;;4969586;28;20391;-85
2021/03/26 10:27:57;;;;;;;5.60;1.90;;;15.40;37.30;;;;;;4971764;28;20054;-85
2021/03/26 10:30:31;;;;;;;5.40;1.50;;;15.60;37.00;;;;;;4959205;28;20030;-83
2021/03/26 10:33:04;;;;;;;2.80;1.60;;;15.80;37.00;;;;;;4964411;28;20122;-83
2021/03/26 10:35:30;;;;;;;5.37;1.37;;;16.00;36.30;;;;;;4956857;28;20062;-83
2021/03/26 10:38:07;;;;;;;7.50;1.53;;;16.00;36.00;;;;;;4969811;28;20037;-83
2021/03/26 10:40:36;;;;;;;3.70;1.57;;;16.00;35.40;;;;;;4969393;28;20042;-84
2021/03/26 10:43:27;;;;;;;4.13;1.57;;;16.10;35.60;;;;;;4969733;28;20039;-84
2021/03/26 10:46:00;;;;;;;3.40;1.50;;;16.30;35.40;;;;;;4970536;28;20387;-84
2021/03/26 10:48:28;;;;;;;;;;;16.50;35.40;;;;;;4965968;28;20505;-83
2021/03/26 10:51:31;;;;;;;2.90;1.90;;;16.60;36.20;;;;;;4968821;28;20371;-83
2021/03/26 10:54:03;;;;;;;5.55;2.22;;;16.60;35.50;;;;;;4970134;28;20466;-84
2021/03/26 10:56:50;;;;;;;6.68;1.92;;;16.80;35.80;;;;;;4973576;28;20491;-84
2021/03/26 10:59:30;;;;;;;6.57;1.85;;;16.90;35.30;;;;;;4962738;28;20028;-84
2021/03/26 11:02:19;;;;;;;8.25;1.83;;;17.00;34.80;;;;;;4966921;28;20110;-84
2021/03/26 11:04:52;;;;;;;5.22;1.88;;;17.00;35.20;;;;;;4957774;28;20023;-84
2021/03/26 11:07:24;;;;;;;5.82;2.13;;;17.10;34.70;;;;;;4966698;28;20050;-84
2021/03/26 11:09:56;;;;;;;6.80;2.13;;;17.20;34.40;;;;;;4969770;28;20031;-84
2021/03/26 11:12:47;;;;;;;4.32;2.03;;;17.30;34.40;;;;;;4970106;28;20069;-84
2021/03/26 11:15:39;;;;;;;6.57;2.30;;;17.40;34.00;;;;;;4965358;28;20443;-84
2021/03/26 11:18:19;;;;;;;3.30;2.00;;;17.50;34.00;;;;;;4962213;28;20086;-84
2021/03/26 11:21:00;;;;;;;7.05;2.17;;;17.50;33.90;;;;;;4972375;28;20023;-84
2021/03/26 11:23:29;;;;;;;5.80;2.90;;;17.60;34.10;;;;;;4970999;28;20031;-84
2021/03/26 11:25:58;;;;;;;4.28;2.53;;;17.70;34.10;;;;;;4970788;28;20082;-84
2021/03/26 11:28:48;;;;;;;7.60;3.28;;;17.90;34.20;;;;;;4968904;28;20114;-84
2021/03/26 11:31:32;;;;;;;6.07;2.70;;;18.00;34.20;;;;;;4950262;28;20602;-84
2021/03/26 11:34:21;;;;;;;7.32;3.67;;;18.10;33.90;;;;;;4964893;28;20034;-84
2021/03/26 11:36:46;;;;;;;6.85;3.67;;;18.10;33.80;;;;;;4953647;29;20023;-84
2021/03/26 11:39:12;;;;;;;6.40;3.22;;;18.10;34.20;;;;;;4966737;28;20081;-84
2021/03/26 11:42:07;;;;;;;6.65;3.00;;;18.30;34.10;;;;;;4972139;28;20038;-84
2021/03/26 11:44:42;;;;;;;4.82;2.88;;;18.30;34.10;;;;;;4971250;28;20027;-84
2021/03/26 11:47:39;;;;;;;7.70;3.03;;;18.50;33.80;;;;;;4956574;28;20028;-84
2021/03/26 11:50:30;;;;;;;7.72;2.97;;;18.60;33.80;;;;;;4957586;28;20063;-84
2021/03/26 11:52:56;;;;;;;5.43;2.75;;;18.70;33.70;;;;;;4983755;28;20034;-83
2021/03/26 11:55:29;;;;;;;8.50;2.83;;;18.80;33.80;;;;;;4972072;28;20022;-84
2021/03/26 11:58:12;;;;;;;5.38;2.85;;;19.00;33.70;;;;;;4968554;28;20027;-84
2021/03/26 12:00:39;;;;;;;5.10;2.20;;;19.10;33.00;;;;;;4969383;28;20038;-83
2021/03/26 12:03:49;;;;;;;4.03;2.05;;;19.20;32.70;;;;;;4971017;28;20073;-83
2021/03/26 12:06:25;;;;;;;4.43;1.65;;;19.40;32.20;;;;;;4935389;29;20059;-83
2021/03/26 12:09:31;;;;;;;3.33;1.70;;;19.40;32.10;;;;;;4949557;29;20042;-83
2021/03/26 12:12:00;;;;;;;5.53;2.08;;;19.40;31.50;;;;;;4938926;29;20500;-83
2021/03/26 12:15:04;;;;;;;4.57;2.20;;;19.50;31.40;;;;;;4959717;28;20041;-83
2021/03/26 12:18:23;;;;;;;4.60;1.77;;;19.50;30.70;;;;;;4969852;28;20081;-84
2021/03/26 12:20:50;;;;;;;10.57;1.98;;;19.60;31.20;;;;;;4947189;28;20030;-84
2021/03/26 12:23:30;;;;;;;3.78;2.45;;;19.70;31.30;;;;;;4953783;28;20082;-83
2021/03/26 12:26:27;;;;;;;4.47;2.15;;;19.70;31.00;;;;;;4960106;28;20039;-83
2021/03/26 12:28:52;;;;;;;4.13;1.80;;;19.80;30.50;;;;;;4972343;28;20019;-83
2021/03/26 12:31:37;;;;;;;5.18;1.73;;;19.80;30.80;;;;;;4974915;28;20497;-83
2021/03/26 12:34:12;;;;;;;2.65;1.50;;;19.80;30.40;;;;;;4972315;28;20038;-85
2021/03/26 12:36:50;;;;;;;5.78;1.88;;;19.90;30.40;;;;;;4956896;29;20143;-85
2021/03/26 12:39:32;;;;;;;5.95;2.08;;;19.90;30.40;;;;;;4990902;28;20121;-86
2021/03/26 12:42:10;;;;;;;5.15;2.10;;;20.00;30.50;;;;;;4962288;28;20023;-85
2021/03/26 12:44:38;;;;;;;8.10;2.40;;;20.00;30.60;;;;;;4963903;28;20027;-85
2021/03/26 12:47:16;;;;;;;10.20;2.58;;;20.10;30.70;;;;;;4956913;28;20035;-85
2021/03/26 12:49:42;;;;;;;14.00;4.47;;;20.10;30.30;;;;;;4975539;28;20023;-85
2021/03/26 12:52:31;;;;;;;15.00;3.22;;;20.10;30.60;;;;;;4972874;28;20386;-84
2021/03/26 12:55:12;;;;;;;9.07;3.08;;;20.20;30.60;;;;;;4963739;28;20028;-85
2021/03/26 12:58:08;;;;;;;4.35;2.22;;;20.20;30.60;;;;;;4973629;28;20067;-85
2021/03/26 13:01:01;;;;;;;5.82;1.88;;;20.20;30.30;;;;;;4971392;28;20031;-85
2021/03/26 13:03:40;;;;;;;11.52;4.05;;;20.20;30.40;;;;;;4961869;28;20070;-85
2021/03/26 13:06:32;;;;;;;12.32;3.38;;;20.30;30.40;;;;;;4987944;28;20547;-85
2021/03/26 13:09:07;;;;;;;5.32;2.63;;;20.30;30.30;;;;;;4955551;28;20035;-85
2021/03/26 13:11:39;;;;;;;5.78;2.60;;;20.40;30.30;;;;;;4967656;28;20059;-85
2021/03/26 13:14:29;;;;;;;6.15;2.38;;;20.40;30.00;;;;;;4969271;28;20031;-85
2021/03/26 13:16:56;;;;;;;4.40;2.60;;;20.50;30.00;;;;;;4982037;28;20023;-85
2021/03/26 13:19:21;;;;;;;5.05;3.15;;;20.40;30.00;;;;;;4971643;28;20031;-84
2021/03/26 13:22:11;;;;;;;4.75;2.95;;;20.40;30.00;;;;;;4973802;28;20498;-85
2021/03/26 13:24:54;;;;;;;5.90;2.50;;;20.50;29.80;;;;;;4974023;28;20038;-85
2021/03/26 13:27:22;;;;;;;5.00;2.08;;;20.40;29.70;;;;;;4974295;28;20033;-84
2021/03/26 13:29:57;;;;;;;6.40;2.45;;;20.40;29.80;;;;;;4974437;28;20495;-85
2021/03/26 13:32:26;;;;;;;6.30;2.50;;;20.40;29.80;;;;;;4971406;28;20031;-85
2021/03/26 13:34:59;;;;;;;4.82;3.03;;;20.40;29.70;;;;;;4955069;29;20130;-84
2021/03/26 13:37:32;;;;;;;4.63;2.70;;;20.40;29.50;;;;;;4962946;28;20034;-84
2021/03/26 13:40:17;;;;;;;7.57;3.28;;;20.40;29.50;;;;;;4970150;28;20066;-85
2021/03/26 13:42:51;;;;;;;6.65;3.13;;;20.40;29.50;;;;;;4971141;28;20034;-85
2021/03/26 13:45:20;;;;;;;8.88;3.63;;;20.40;29.80;;;;;;4969238;28;20118;-86
2021/03/26 13:47:57;;;;;;;7.93;3.17;;;20.40;29.70;;;;;;4968322;28;20380;-84
2021/03/26 13:50:37;;;;;;;7.15;3.60;;;20.50;29.50;;;;;;4960747;28;20035;-85
2021/03/26 13:53:49;;;;;;;6.70;3.17;;;20.50;29.20;;;;;;4982995;28;20030;-85
2021/03/26 13:56:40;;;;;;;5.45;3.38;;;20.50;29.40;;;;;;4965922;28;20027;-85
2021/03/26 13:59:44;;;;;;;7.80;3.72;;;20.60;29.40;;;;;;4965837;28;20097;-85